sensor_id;sensor_type;location;lat;lon;timestamp;temperature;humidity
17154;DHT22;8692;52.164;7.558;2022-12-18T00:00:16;-5.60;99.90
17154;DHT22;8692;52.164;7.558;2022-12-18T00:02:44;-5.60;99.90
17154;DHT22;8692;52.164;7.558;2022-12-18T00:05:13;-5.60;99.90
17154;DHT22;8692;52.164;7.558;2022-12-18T00:07:43;-5.70;99.90
17154;DHT22;8692;52.164;7.558;2022-12-18T00:10:11;-5.70;99.90
17154;DHT22;8692;52.164;7.558;2022-12-18T00:12:45;-5.70;99.90
17154;DHT22;8692;52.164;7.558;2022-12-18T00:15:14;-5.70;99.90
17154;DHT22;8692;52.164;7.558;2022-12-18T00:17:42;-5.70;99.90
17154;DHT22;8692;52.164;7.558;2022-12-18T00:20:10;-5.80;99.90
17154;DHT22;8692;52.164;7.558;2022-12-18T00:22:41;-5.80;99.90
17154;DHT22;8692;52.164;7.558;2022-12-18T00:25:09;-5.80;99.90
17154;DHT22;8692;52.164;7.558;2022-12-18T00:27:37;-5.90;99.90
17154;DHT22;8692;52.164;7.558;2022-12-18T00:30:08;-5.90;99.90
17154;DHT22;8692;52.164;7.558;2022-12-18T00:32:36;-5.90;99.90
17154;DHT22;8692;52.164;7.558;2022-12-18T00:35:05;-5.90;99.90
17154;DHT22;8692;52.164;7.558;2022-12-18T00:37:36;-6.00;99.90
17154;DHT22;8692;52.164;7.558;2022-12-18T00:40:08;-6.00;99.90
17154;DHT22;8692;52.164;7.558;2022-12-18T00:42:36;-6.00;99.90
17154;DHT22;8692;52.164;7.558;2022-12-18T00:45:24;-6.10;99.90
17154;DHT22;8692;52.164;7.558;2022-12-18T00:47:54;-6.10;99.90
17154;DHT22;8692;52.164;7.558;2022-12-18T00:50:25;-6.10;99.90
17154;DHT22;8692;52.164;7.558;2022-12-18T00:52:54;-6.20;99.90
17154;DHT22;8692;52.164;7.558;2022-12-18T00:55:23;-6.20;99.90
17154;DHT22;8692;52.164;7.558;2022-12-18T00:57:53;-6.20;99.90
17154;DHT22;8692;52.164;7.558;2022-12-18T01:00:22;-6.20;99.90
17154;DHT22;8692;52.164;7.558;2022-12-18T01:02:52;-6.20;99.90
17154;DHT22;8692;52.164;7.558;2022-12-18T01:05:20;-6.20;99.90
17154;DHT22;8692;52.164;7.558;2022-12-18T01:07:48;-6.30;99.90
17154;DHT22;8692;52.164;7.558;2022-12-18T01:10:17;-6.30;99.90
17154;DHT22;8692;52.164;7.558;2022-12-18T01:12:45;-6.30;99.90
17154;DHT22;8692;52.164;7.558;2022-12-18T01:15:14;-6.30;99.90
17154;DHT22;8692;52.164;7.558;2022-12-18T01:17:43;-6.40;99.90
17154;DHT22;8692;52.164;7.558;2022-12-18T01:20:14;-6.40;99.90
17154;DHT22;8692;52.164;7.558;2022-12-18T01:22:43;-6.40;99.90
17154;DHT22;8692;52.164;7.558;2022-12-18T01:25:11;-6.40;99.90
17154;DHT22;8692;52.164;7.558;2022-12-18T01:27:39;-6.40;99.90
17154;DHT22;8692;52.164;7.558;2022-12-18T01:30:10;-6.40;99.90
17154;DHT22;8692;52.164;7.558;2022-12-18T01:32:39;-6.50;99.90
17154;DHT22;8692;52.164;7.558;2022-12-18T01:35:07;-6.50;99.90
17154;DHT22;8692;52.164;7.558;2022-12-18T01:37:39;-6.50;99.90
17154;DHT22;8692;52.164;7.558;2022-12-18T01:40:08;-6.50;99.90
17154;DHT22;8692;52.164;7.558;2022-12-18T01:42:39;-6.60;99.90
17154;DHT22;8692;52.164;7.558;2022-12-18T01:45:23;-6.60;99.90
17154;DHT22;8692;52.164;7.558;2022-12-18T01:47:54;-6.60;99.90
17154;DHT22;8692;52.164;7.558;2022-12-18T01:50:25;-6.60;99.90
17154;DHT22;8692;52.164;7.558;2022-12-18T01:52:59;-6.70;99.90
17154;DHT22;8692;52.164;7.558;2022-12-18T01:55:30;-6.70;99.90
17154;DHT22;8692;52.164;7.558;2022-12-18T01:58:00;-6.70;99.90
17154;DHT22;8692;52.164;7.558;2022-12-18T02:00:29;-6.70;99.90
17154;DHT22;8692;52.164;7.558;2022-12-18T02:02:59;-6.70;99.90
17154;DHT22;8692;52.164;7.558;2022-12-18T02:05:38;-6.80;99.90
17154;DHT22;8692;52.164;7.558;2022-12-18T02:08:17;-6.80;99.90
17154;DHT22;8692;52.164;7.558;2022-12-18T02:10:54;-6.80;99.90
17154;DHT22;8692;52.164;7.558;2022-12-18T02:13:32;-6.80;99.90
17154;DHT22;8692;52.164;7.558;2022-12-18T02:16:15;-6.80;99.90
17154;DHT22;8692;52.164;7.558;2022-12-18T02:18:51;-6.80;99.90
17154;DHT22;8692;52.164;7.558;2022-12-18T02:21:27;-6.90;99.90
17154;DHT22;8692;52.164;7.558;2022-12-18T02:24:17;-6.90;99.90
17154;DHT22;8692;52.164;7.558;2022-12-18T02:26:49;-6.90;99.90
17154;DHT22;8692;52.164;7.558;2022-12-18T02:29:23;-6.90;99.90
17154;DHT22;8692;52.164;7.558;2022-12-18T02:31:56;-6.90;99.90
17154;DHT22;8692;52.164;7.558;2022-12-18T02:34:28;-7.00;99.90
17154;DHT22;8692;52.164;7.558;2022-12-18T02:36:58;-7.00;99.90
17154;DHT22;8692;52.164;7.558;2022-12-18T02:39:30;-7.00;99.90
17154;DHT22;8692;52.164;7.558;2022-12-18T02:42:04;-7.00;99.90
17154;DHT22;8692;52.164;7.558;2022-12-18T02:44:42;-7.00;99.90
17154;DHT22;8692;52.164;7.558;2022-12-18T02:47:17;-7.10;99.90
17154;DHT22;8692;52.164;7.558;2022-12-18T02:49:55;-7.10;99.90
17154;DHT22;8692;52.164;7.558;2022-12-18T02:52:35;-7.10;99.90
17154;DHT22;8692;52.164;7.558;2022-12-18T02:55:14;-7.10;99.90
17154;DHT22;8692;52.164;7.558;2022-12-18T02:57:54;-7.20;99.90
17154;DHT22;8692;52.164;7.558;2022-12-18T03:00:30;-7.20;99.90
17154;DHT22;8692;52.164;7.558;2022-12-18T03:03:05;-7.20;99.90
17154;DHT22;8692;52.164;7.558;2022-12-18T03:05:38;-7.20;99.90
17154;DHT22;8692;52.164;7.558;2022-12-18T03:08:15;-7.30;99.90
17154;DHT22;8692;52.164;7.558;2022-12-18T03:10:51;-7.30;99.90
17154;DHT22;8692;52.164;7.558;2022-12-18T03:13:28;-7.30;99.90
17154;DHT22;8692;52.164;7.558;2022-12-18T03:16:02;-7.30;99.90
17154;DHT22;8692;52.164;7.558;2022-12-18T03:18:34;-7.30;99.90
17154;DHT22;8692;52.164;7.558;2022-12-18T03:21:06;-7.40;99.90
17154;DHT22;8692;52.164;7.558;2022-12-18T03:23:41;-7.40;99.90
17154;DHT22;8692;52.164;7.558;2022-12-18T03:26:16;-7.40;99.90
17154;DHT22;8692;52.164;7.558;2022-12-18T03:28:54;-7.40;99.90
17154;DHT22;8692;52.164;7.558;2022-12-18T03:31:29;-7.40;99.90
17154;DHT22;8692;52.164;7.558;2022-12-18T03:34:03;-7.40;99.90
17154;DHT22;8692;52.164;7.558;2022-12-18T03:36:40;-7.50;99.90
17154;DHT22;8692;52.164;7.558;2022-12-18T03:39:08;-7.50;99.90
17154;DHT22;8692;52.164;7.558;2022-12-18T03:41:44;-7.50;99.90
17154;DHT22;8692;52.164;7.558;2022-12-18T03:44:33;-7.50;99.90
17154;DHT22;8692;52.164;7.558;2022-12-18T03:47:07;-7.50;99.90
17154;DHT22;8692;52.164;7.558;2022-12-18T03:49:41;-7.50;99.90
17154;DHT22;8692;52.164;7.558;2022-12-18T03:52:17;-7.50;99.90
17154;DHT22;8692;52.164;7.558;2022-12-18T03:54:48;-7.60;99.90
17154;DHT22;8692;52.164;7.558;2022-12-18T03:57:19;-7.60;99.90
17154;DHT22;8692;52.164;7.558;2022-12-18T03:59:55;-7.60;99.90
17154;DHT22;8692;52.164;7.558;2022-12-18T04:02:29;-7.60;99.90
17154;DHT22;8692;52.164;7.558;2022-12-18T04:05:04;-7.60;99.90
17154;DHT22;8692;52.164;7.558;2022-12-18T04:07:36;-7.60;99.90
17154;DHT22;8692;52.164;7.558;2022-12-18T04:10:08;-7.70;99.90
17154;DHT22;8692;52.164;7.558;2022-12-18T04:12:37;-7.60;99.90
17154;DHT22;8692;52.164;7.558;2022-12-18T04:15:10;-7.60;99.90
17154;DHT22;8692;52.164;7.558;2022-12-18T04:17:43;-7.60;99.90
17154;DHT22;8692;52.164;7.558;2022-12-18T04:20:16;-7.70;99.90
17154;DHT22;8692;52.164;7.558;2022-12-18T04:22:45;-7.70;99.90
17154;DHT22;8692;52.164;7.558;2022-12-18T04:25:13;-7.70;99.90
17154;DHT22;8692;52.164;7.558;2022-12-18T04:27:54;-7.60;99.90
17154;DHT22;8692;52.164;7.558;2022-12-18T04:30:23;-7.70;99.90
17154;DHT22;8692;52.164;7.558;2022-12-18T04:32:54;-7.70;99.90
17154;DHT22;8692;52.164;7.558;2022-12-18T04:35:22;-7.70;99.90
17154;DHT22;8692;52.164;7.558;2022-12-18T04:37:50;-7.70;99.90
17154;DHT22;8692;52.164;7.558;2022-12-18T04:40:20;-7.70;99.90
17154;DHT22;8692;52.164;7.558;2022-12-18T04:42:49;-7.70;99.90
17154;DHT22;8692;52.164;7.558;2022-12-18T04:45:17;-7.80;99.90
17154;DHT22;8692;52.164;7.558;2022-12-18T04:47:49;-7.80;99.90
17154;DHT22;8692;52.164;7.558;2022-12-18T04:50:17;-7.80;99.90
17154;DHT22;8692;52.164;7.558;2022-12-18T04:52:45;-7.80;99.90
17154;DHT22;8692;52.164;7.558;2022-12-18T04:55:13;-7.80;99.90
17154;DHT22;8692;52.164;7.558;2022-12-18T04:57:44;-7.80;99.90
17154;DHT22;8692;52.164;7.558;2022-12-18T05:00:13;-7.80;99.90
17154;DHT22;8692;52.164;7.558;2022-12-18T05:02:43;-7.80;99.90
17154;DHT22;8692;52.164;7.558;2022-12-18T05:05:15;-7.80;99.90
17154;DHT22;8692;52.164;7.558;2022-12-18T05:07:45;-7.80;99.90
17154;DHT22;8692;52.164;7.558;2022-12-18T05:10:14;-7.80;99.90
17154;DHT22;8692;52.164;7.558;2022-12-18T05:12:42;-7.80;99.90
17154;DHT22;8692;52.164;7.558;2022-12-18T05:15:26;-7.80;99.90
17154;DHT22;8692;52.164;7.558;2022-12-18T05:17:57;-7.80;99.90
17154;DHT22;8692;52.164;7.558;2022-12-18T05:20:28;-7.90;99.90
17154;DHT22;8692;52.164;7.558;2022-12-18T05:22:58;-7.80;99.90
17154;DHT22;8692;52.164;7.558;2022-12-18T05:25:29;-7.80;99.90
17154;DHT22;8692;52.164;7.558;2022-12-18T05:27:57;-7.80;99.90
17154;DHT22;8692;52.164;7.558;2022-12-18T05:30:25;-7.80;99.90
17154;DHT22;8692;52.164;7.558;2022-12-18T05:32:54;-7.80;99.90
17154;DHT22;8692;52.164;7.558;2022-12-18T05:35:22;-7.80;99.90
17154;DHT22;8692;52.164;7.558;2022-12-18T05:37:52;-7.80;99.90
17154;DHT22;8692;52.164;7.558;2022-12-18T05:40:20;-7.80;99.90
17154;DHT22;8692;52.164;7.558;2022-12-18T05:42:48;-7.80;99.90
17154;DHT22;8692;52.164;7.558;2022-12-18T05:45:16;-7.80;99.90
17154;DHT22;8692;52.164;7.558;2022-12-18T05:47:46;-7.70;99.90
17154;DHT22;8692;52.164;7.558;2022-12-18T05:50:17;-7.70;99.90
17154;DHT22;8692;52.164;7.558;2022-12-18T05:52:49;-7.70;99.90
17154;DHT22;8692;52.164;7.558;2022-12-18T05:55:18;-7.70;99.90
17154;DHT22;8692;52.164;7.558;2022-12-18T05:57:46;-7.70;99.90
17154;DHT22;8692;52.164;7.558;2022-12-18T06:00:17;-7.60;99.90
17154;DHT22;8692;52.164;7.558;2022-12-18T06:02:47;-7.60;99.90
17154;DHT22;8692;52.164;7.558;2022-12-18T06:05:16;-7.60;99.90
17154;DHT22;8692;52.164;7.558;2022-12-18T06:07:46;-7.60;99.90
17154;DHT22;8692;52.164;7.558;2022-12-18T06:10:14;-7.60;99.90
17154;DHT22;8692;52.164;7.558;2022-12-18T06:12:44;-7.60;99.90
17154;DHT22;8692;52.164;7.558;2022-12-18T06:15:13;-7.60;99.90
17154;DHT22;8692;52.164;7.558;2022-12-18T06:17:42;-7.60;99.90
17154;DHT22;8692;52.164;7.558;2022-12-18T06:20:13;-7.60;99.90
17154;DHT22;8692;52.164;7.558;2022-12-18T06:22:42;-7.60;99.90
17154;DHT22;8692;52.164;7.558;2022-12-18T06:25:12;-7.50;99.90
17154;DHT22;8692;52.164;7.558;2022-12-18T06:27:47;-7.60;99.90
17154;DHT22;8692;52.164;7.558;2022-12-18T06:30:15;-7.60;99.90
17154;DHT22;8692;52.164;7.558;2022-12-18T06:32:46;-7.60;99.90
17154;DHT22;8692;52.164;7.558;2022-12-18T06:35:22;-7.50;99.90
17154;DHT22;8692;52.164;7.558;2022-12-18T06:37:52;-7.50;99.90
17154;DHT22;8692;52.164;7.558;2022-12-18T06:40:23;-7.50;99.90
17154;DHT22;8692;52.164;7.558;2022-12-18T06:42:52;-7.60;99.90
17154;DHT22;8692;52.164;7.558;2022-12-18T06:45:21;-7.60;99.90
17154;DHT22;8692;52.164;7.558;2022-12-18T06:47:49;-7.60;99.90
17154;DHT22;8692;52.164;7.558;2022-12-18T06:50:17;-7.50;99.90
17154;DHT22;8692;52.164;7.558;2022-12-18T06:52:45;-7.50;99.90
17154;DHT22;8692;52.164;7.558;2022-12-18T06:55:13;-7.50;99.90
17154;DHT22;8692;52.164;7.558;2022-12-18T06:57:44;-7.60;99.90
17154;DHT22;8692;52.164;7.558;2022-12-18T07:00:14;-7.60;99.90
17154;DHT22;8692;52.164;7.558;2022-12-18T07:02:44;-7.60;99.90
17154;DHT22;8692;52.164;7.558;2022-12-18T07:05:12;-7.60;99.90
17154;DHT22;8692;52.164;7.558;2022-12-18T07:07:40;-7.60;99.90
17154;DHT22;8692;52.164;7.558;2022-12-18T07:10:09;-7.60;99.90
17154;DHT22;8692;52.164;7.558;2022-12-18T07:12:39;-7.60;99.90
17154;DHT22;8692;52.164;7.558;2022-12-18T07:15:08;-7.60;99.90
17154;DHT22;8692;52.164;7.558;2022-12-18T07:17:38;-7.60;99.90
17154;DHT22;8692;52.164;7.558;2022-12-18T07:20:07;-7.60;99.90
17154;DHT22;8692;52.164;7.558;2022-12-18T07:22:38;-7.50;99.90
17154;DHT22;8692;52.164;7.558;2022-12-18T07:25:08;-7.50;99.90
17154;DHT22;8692;52.164;7.558;2022-12-18T07:27:36;-7.50;99.90
17154;DHT22;8692;52.164;7.558;2022-12-18T07:30:06;-7.50;99.90
17154;DHT22;8692;52.164;7.558;2022-12-18T07:32:34;-7.40;99.90
17154;DHT22;8692;52.164;7.558;2022-12-18T07:35:06;-7.40;99.90
17154;DHT22;8692;52.164;7.558;2022-12-18T07:37:36;-7.40;99.90
17154;DHT22;8692;52.164;7.558;2022-12-18T07:40:05;-7.40;99.90
17154;DHT22;8692;52.164;7.558;2022-12-18T07:42:34;-7.40;99.90
17154;DHT22;8692;52.164;7.558;2022-12-18T07:45:06;-7.40;99.90
17154;DHT22;8692;52.164;7.558;2022-12-18T07:47:36;-7.40;99.90
17154;DHT22;8692;52.164;7.558;2022-12-18T07:50:06;-7.30;99.90
17154;DHT22;8692;52.164;7.558;2022-12-18T07:52:37;-7.30;99.90
17154;DHT22;8692;52.164;7.558;2022-12-18T07:55:05;-7.30;99.90
17154;DHT22;8692;52.164;7.558;2022-12-18T07:57:34;-7.20;99.90
17154;DHT22;8692;52.164;7.558;2022-12-18T08:00:22;-7.20;99.90
17154;DHT22;8692;52.164;7.558;2022-12-18T08:02:50;-7.10;99.90
17154;DHT22;8692;52.164;7.558;2022-12-18T08:05:20;-7.10;99.90
17154;DHT22;8692;52.164;7.558;2022-12-18T08:07:51;-7.00;99.90
17154;DHT22;8692;52.164;7.558;2022-12-18T08:10:20;-7.00;99.90
17154;DHT22;8692;52.164;7.558;2022-12-18T08:12:49;-7.00;99.90
17154;DHT22;8692;52.164;7.558;2022-12-18T08:15:18;-7.00;99.90
17154;DHT22;8692;52.164;7.558;2022-12-18T08:17:46;-7.00;99.90
17154;DHT22;8692;52.164;7.558;2022-12-18T08:20:15;-6.90;99.90
17154;DHT22;8692;52.164;7.558;2022-12-18T08:22:46;-6.90;99.90
17154;DHT22;8692;52.164;7.558;2022-12-18T08:25:16;-6.90;99.90
17154;DHT22;8692;52.164;7.558;2022-12-18T08:27:44;-6.80;99.90
17154;DHT22;8692;52.164;7.558;2022-12-18T08:30:13;-6.80;99.90
17154;DHT22;8692;52.164;7.558;2022-12-18T08:32:43;-6.80;99.90
17154;DHT22;8692;52.164;7.558;2022-12-18T08:35:11;-6.70;99.90
17154;DHT22;8692;52.164;7.558;2022-12-18T08:37:45;-6.70;99.90
17154;DHT22;8692;52.164;7.558;2022-12-18T08:40:16;-6.60;99.90
17154;DHT22;8692;52.164;7.558;2022-12-18T08:42:46;-6.60;99.90
17154;DHT22;8692;52.164;7.558;2022-12-18T08:45:31;-6.60;99.90
17154;DHT22;8692;52.164;7.558;2022-12-18T08:48:02;-6.50;99.90
17154;DHT22;8692;52.164;7.558;2022-12-18T08:50:30;-6.50;99.90
17154;DHT22;8692;52.164;7.558;2022-12-18T08:53:00;-6.40;99.90
17154;DHT22;8692;52.164;7.558;2022-12-18T08:55:30;-6.40;99.90
17154;DHT22;8692;52.164;7.558;2022-12-18T08:58:01;-6.30;99.90
17154;DHT22;8692;52.164;7.558;2022-12-18T09:00:31;-6.20;99.90
17154;DHT22;8692;52.164;7.558;2022-12-18T09:02:59;-6.10;99.90
17154;DHT22;8692;52.164;7.558;2022-12-18T09:05:29;-6.10;99.90
17154;DHT22;8692;52.164;7.558;2022-12-18T09:07:58;-6.00;99.90
17154;DHT22;8692;52.164;7.558;2022-12-18T09:10:27;-5.90;99.90
17154;DHT22;8692;52.164;7.558;2022-12-18T09:12:58;-5.80;99.90
17154;DHT22;8692;52.164;7.558;2022-12-18T09:15:26;-5.70;99.90
17154;DHT22;8692;52.164;7.558;2022-12-18T09:17:56;-5.60;99.90
17154;DHT22;8692;52.164;7.558;2022-12-18T09:20:26;-5.60;99.90
17154;DHT22;8692;52.164;7.558;2022-12-18T09:22:58;-5.60;99.90
17154;DHT22;8692;52.164;7.558;2022-12-18T09:25:28;-5.50;99.90
17154;DHT22;8692;52.164;7.558;2022-12-18T09:27:59;-5.40;99.90
17154;DHT22;8692;52.164;7.558;2022-12-18T09:30:30;-5.30;99.90
17154;DHT22;8692;52.164;7.558;2022-12-18T09:33:00;-5.30;99.90
17154;DHT22;8692;52.164;7.558;2022-12-18T09:35:29;-5.20;99.90
17154;DHT22;8692;52.164;7.558;2022-12-18T09:37:57;-5.20;99.90
17154;DHT22;8692;52.164;7.558;2022-12-18T09:40:42;-5.10;99.90
17154;DHT22;8692;52.164;7.558;2022-12-18T09:43:15;-5.10;99.90
17154;DHT22;8692;52.164;7.558;2022-12-18T09:45:47;-5.10;99.90
17154;DHT22;8692;52.164;7.558;2022-12-18T09:48:23;-5.00;99.90
17154;DHT22;8692;52.164;7.558;2022-12-18T09:50:56;-5.00;99.90
17154;DHT22;8692;52.164;7.558;2022-12-18T09:53:30;-4.90;99.90
17154;DHT22;8692;52.164;7.558;2022-12-18T09:56:01;-4.90;99.90
17154;DHT22;8692;52.164;7.558;2022-12-18T09:58:35;-4.80;99.90
17154;DHT22;8692;52.164;7.558;2022-12-18T10:01:10;-4.70;99.90
17154;DHT22;8692;52.164;7.558;2022-12-18T10:03:38;-4.70;99.90
17154;DHT22;8692;52.164;7.558;2022-12-18T10:06:10;-4.60;99.90
17154;DHT22;8692;52.164;7.558;2022-12-18T10:08:45;-4.50;99.90
17154;DHT22;8692;52.164;7.558;2022-12-18T10:11:32;-4.50;99.90
17154;DHT22;8692;52.164;7.558;2022-12-18T10:14:08;-4.40;99.90
17154;DHT22;8692;52.164;7.558;2022-12-18T10:16:47;-4.30;99.90
17154;DHT22;8692;52.164;7.558;2022-12-18T10:19:39;-4.20;99.90
17154;DHT22;8692;52.164;7.558;2022-12-18T10:22:26;-4.20;99.90
17154;DHT22;8692;52.164;7.558;2022-12-18T10:25:01;-4.10;99.90
17154;DHT22;8692;52.164;7.558;2022-12-18T10:27:34;-4.10;99.90
17154;DHT22;8692;52.164;7.558;2022-12-18T10:30:07;-4.00;99.90
17154;DHT22;8692;52.164;7.558;2022-12-18T10:32:40;-4.00;99.90
17154;DHT22;8692;52.164;7.558;2022-12-18T10:35:14;-3.90;99.90
17154;DHT22;8692;52.164;7.558;2022-12-18T10:38:02;-3.90;99.90
17154;DHT22;8692;52.164;7.558;2022-12-18T10:40:48;-3.90;99.90
17154;DHT22;8692;52.164;7.558;2022-12-18T10:43:22;-3.90;99.90
17154;DHT22;8692;52.164;7.558;2022-12-18T10:46:04;-3.80;99.90
17154;DHT22;8692;52.164;7.558;2022-12-18T10:48:35;-3.70;99.90
17154;DHT22;8692;52.164;7.558;2022-12-18T10:51:06;-3.70;99.90
17154;DHT22;8692;52.164;7.558;2022-12-18T10:53:42;-3.60;99.90
17154;DHT22;8692;52.164;7.558;2022-12-18T10:56:12;-3.60;99.90
17154;DHT22;8692;52.164;7.558;2022-12-18T10:58:56;-3.50;99.90
17154;DHT22;8692;52.164;7.558;2022-12-18T11:01:26;-3.50;99.90
17154;DHT22;8692;52.164;7.558;2022-12-18T11:04:07;-3.40;99.90
17154;DHT22;8692;52.164;7.558;2022-12-18T11:06:53;-3.40;99.90
17154;DHT22;8692;52.164;7.558;2022-12-18T11:09:26;-3.30;99.90
17154;DHT22;8692;52.164;7.558;2022-12-18T11:11:57;-3.30;99.90
17154;DHT22;8692;52.164;7.558;2022-12-18T11:14:32;-3.30;99.90
17154;DHT22;8692;52.164;7.558;2022-12-18T11:17:01;-3.20;99.90
17154;DHT22;8692;52.164;7.558;2022-12-18T11:19:53;-3.20;99.90
17154;DHT22;8692;52.164;7.558;2022-12-18T11:22:24;-3.10;99.90
17154;DHT22;8692;52.164;7.558;2022-12-18T11:24:57;-3.10;99.90
17154;DHT22;8692;52.164;7.558;2022-12-18T11:27:51;-3.00;99.90
17154;DHT22;8692;52.164;7.558;2022-12-18T11:30:26;-2.90;99.90
17154;DHT22;8692;52.164;7.558;2022-12-18T11:33:01;-2.90;99.90
17154;DHT22;8692;52.164;7.558;2022-12-18T11:35:37;-2.80;99.90
17154;DHT22;8692;52.164;7.558;2022-12-18T11:38:15;-2.80;99.90
17154;DHT22;8692;52.164;7.558;2022-12-18T11:40:49;-2.80;99.90
17154;DHT22;8692;52.164;7.558;2022-12-18T11:43:26;-2.70;99.90
17154;DHT22;8692;52.164;7.558;2022-12-18T11:46:01;-2.70;99.90
17154;DHT22;8692;52.164;7.558;2022-12-18T11:48:33;-2.70;99.90
17154;DHT22;8692;52.164;7.558;2022-12-18T11:51:03;-2.60;99.90
17154;DHT22;8692;52.164;7.558;2022-12-18T11:53:33;-2.60;99.90
17154;DHT22;8692;52.164;7.558;2022-12-18T11:56:26;-2.50;99.90
17154;DHT22;8692;52.164;7.558;2022-12-18T11:59:06;-2.50;99.90
17154;DHT22;8692;52.164;7.558;2022-12-18T12:01:46;-2.50;99.90
17154;DHT22;8692;52.164;7.558;2022-12-18T12:04:37;-2.50;99.90
17154;DHT22;8692;52.164;7.558;2022-12-18T12:07:19;-2.50;99.90
17154;DHT22;8692;52.164;7.558;2022-12-18T12:09:54;-2.40;99.90
17154;DHT22;8692;52.164;7.558;2022-12-18T12:12:34;-2.40;99.90
17154;DHT22;8692;52.164;7.558;2022-12-18T12:15:26;-2.30;99.90
17154;DHT22;8692;52.164;7.558;2022-12-18T12:18:06;-2.30;99.90
17154;DHT22;8692;52.164;7.558;2022-12-18T12:20:44;-2.30;99.90
17154;DHT22;8692;52.164;7.558;2022-12-18T12:23:17;-2.30;99.90
17154;DHT22;8692;52.164;7.558;2022-12-18T12:25:57;-2.20;99.90
17154;DHT22;8692;52.164;7.558;2022-12-18T12:28:55;-2.10;99.90
17154;DHT22;8692;52.164;7.558;2022-12-18T12:31:40;-2.10;99.90
17154;DHT22;8692;52.164;7.558;2022-12-18T12:34:16;-2.10;99.90
17154;DHT22;8692;52.164;7.558;2022-12-18T12:36:59;-2.10;99.90
17154;DHT22;8692;52.164;7.558;2022-12-18T12:39:32;-2.00;99.90
17154;DHT22;8692;52.164;7.558;2022-12-18T12:42:04;-2.00;99.90
17154;DHT22;8692;52.164;7.558;2022-12-18T12:44:55;-2.00;99.90
17154;DHT22;8692;52.164;7.558;2022-12-18T12:47:37;-2.00;99.90
17154;DHT22;8692;52.164;7.558;2022-12-18T12:50:13;-1.90;99.90
17154;DHT22;8692;52.164;7.558;2022-12-18T12:52:47;-1.90;99.90
17154;DHT22;8692;52.164;7.558;2022-12-18T12:55:18;-1.90;99.90
17154;DHT22;8692;52.164;7.558;2022-12-18T12:57:55;-1.90;99.90
17154;DHT22;8692;52.164;7.558;2022-12-18T13:00:29;-1.90;99.90
17154;DHT22;8692;52.164;7.558;2022-12-18T13:03:04;-1.80;99.90
17154;DHT22;8692;52.164;7.558;2022-12-18T13:05:41;-1.80;99.90
17154;DHT22;8692;52.164;7.558;2022-12-18T13:08:21;-1.80;99.90
17154;DHT22;8692;52.164;7.558;2022-12-18T13:10:50;-1.80;99.90
17154;DHT22;8692;52.164;7.558;2022-12-18T13:13:49;-1.70;99.90
17154;DHT22;8692;52.164;7.558;2022-12-18T13:16:20;-1.70;99.90
17154;DHT22;8692;52.164;7.558;2022-12-18T13:18:50;-1.60;99.90
17154;DHT22;8692;52.164;7.558;2022-12-18T13:21:25;-1.60;99.90
17154;DHT22;8692;52.164;7.558;2022-12-18T13:23:55;-1.60;99.90
17154;DHT22;8692;52.164;7.558;2022-12-18T13:26:31;-1.60;99.90
17154;DHT22;8692;52.164;7.558;2022-12-18T13:29:01;-1.60;99.90
17154;DHT22;8692;52.164;7.558;2022-12-18T13:31:57;-1.60;99.90
17154;DHT22;8692;52.164;7.558;2022-12-18T13:34:26;-1.60;99.90
17154;DHT22;8692;52.164;7.558;2022-12-18T13:43:28;-1.50;99.90
17154;DHT22;8692;52.164;7.558;2022-12-18T13:46:06;-1.50;99.90
17154;DHT22;8692;52.164;7.558;2022-12-18T13:48:56;-1.50;99.90
17154;DHT22;8692;52.164;7.558;2022-12-18T13:51:25;-1.50;99.90
17154;DHT22;8692;52.164;7.558;2022-12-18T13:53:58;-1.50;99.90
17154;DHT22;8692;52.164;7.558;2022-12-18T13:56:29;-1.50;99.90
17154;DHT22;8692;52.164;7.558;2022-12-18T13:59:16;-1.40;99.90
17154;DHT22;8692;52.164;7.558;2022-12-18T14:01:52;-1.40;99.90
17154;DHT22;8692;52.164;7.558;2022-12-18T14:04:26;-1.40;99.90
17154;DHT22;8692;52.164;7.558;2022-12-18T14:06:58;-1.40;99.90
17154;DHT22;8692;52.164;7.558;2022-12-18T14:09:34;-1.30;99.90
17154;DHT22;8692;52.164;7.558;2022-12-18T14:12:14;-1.30;99.90
17154;DHT22;8692;52.164;7.558;2022-12-18T14:15:01;-1.30;99.90
17154;DHT22;8692;52.164;7.558;2022-12-18T14:17:32;-1.30;99.90
17154;DHT22;8692;52.164;7.558;2022-12-18T14:20:13;-1.30;99.90
17154;DHT22;8692;52.164;7.558;2022-12-18T14:22:45;-1.30;99.90
17154;DHT22;8692;52.164;7.558;2022-12-18T14:25:19;-1.20;99.90
17154;DHT22;8692;52.164;7.558;2022-12-18T14:27:50;-1.20;99.90
17154;DHT22;8692;52.164;7.558;2022-12-18T14:30:27;-1.30;99.90
17154;DHT22;8692;52.164;7.558;2022-12-18T14:33:06;-1.20;99.90
17154;DHT22;8692;52.164;7.558;2022-12-18T14:35:39;-1.20;99.90
17154;DHT22;8692;52.164;7.558;2022-12-18T14:38:22;-1.20;99.90
17154;DHT22;8692;52.164;7.558;2022-12-18T14:40:57;-1.30;99.90
17154;DHT22;8692;52.164;7.558;2022-12-18T14:43:29;-1.20;99.90
17154;DHT22;8692;52.164;7.558;2022-12-18T14:46:02;-1.20;99.90
17154;DHT22;8692;52.164;7.558;2022-12-18T14:48:39;-1.20;99.90
17154;DHT22;8692;52.164;7.558;2022-12-18T14:51:15;-1.20;99.90
17154;DHT22;8692;52.164;7.558;2022-12-18T14:53:48;-1.20;99.90
17154;DHT22;8692;52.164;7.558;2022-12-18T14:56:23;-1.20;99.90
17154;DHT22;8692;52.164;7.558;2022-12-18T14:58:54;-1.10;99.90
17154;DHT22;8692;52.164;7.558;2022-12-18T15:01:28;-1.10;99.90
17154;DHT22;8692;52.164;7.558;2022-12-18T15:03:58;-1.10;99.90
17154;DHT22;8692;52.164;7.558;2022-12-18T15:06:30;-1.10;99.90
17154;DHT22;8692;52.164;7.558;2022-12-18T15:09:00;-1.10;99.90
17154;DHT22;8692;52.164;7.558;2022-12-18T15:11:36;-1.10;99.90
17154;DHT22;8692;52.164;7.558;2022-12-18T15:14:30;-1.10;99.90
17154;DHT22;8692;52.164;7.558;2022-12-18T15:16:59;-1.00;99.90
17154;DHT22;8692;52.164;7.558;2022-12-18T15:19:35;-1.00;99.90
17154;DHT22;8692;52.164;7.558;2022-12-18T15:22:20;-1.00;99.90
17154;DHT22;8692;52.164;7.558;2022-12-18T15:24:49;-1.00;99.90
17154;DHT22;8692;52.164;7.558;2022-12-18T15:27:27;-1.00;99.90
17154;DHT22;8692;52.164;7.558;2022-12-18T15:32:48;-1.00;99.90
17154;DHT22;8692;52.164;7.558;2022-12-18T15:35:19;-1.00;99.90
17154;DHT22;8692;52.164;7.558;2022-12-18T15:37:47;-0.90;99.90
17154;DHT22;8692;52.164;7.558;2022-12-18T15:40:18;-0.90;99.90
17154;DHT22;8692;52.164;7.558;2022-12-18T15:42:52;-0.90;99.90
17154;DHT22;8692;52.164;7.558;2022-12-18T15:45:39;-0.90;99.90
17154;DHT22;8692;52.164;7.558;2022-12-18T15:48:22;-1.00;99.90
17154;DHT22;8692;52.164;7.558;2022-12-18T15:50:54;-0.90;99.90
17154;DHT22;8692;52.164;7.558;2022-12-18T15:53:24;-0.90;99.90
17154;DHT22;8692;52.164;7.558;2022-12-18T15:55:53;-1.00;99.90
17154;DHT22;8692;52.164;7.558;2022-12-18T15:58:40;-1.00;99.90
17154;DHT22;8692;52.164;7.558;2022-12-18T16:01:10;-1.00;99.90
17154;DHT22;8692;52.164;7.558;2022-12-18T16:03:41;-1.00;99.90
17154;DHT22;8692;52.164;7.558;2022-12-18T16:06:12;-0.90;99.90
17154;DHT22;8692;52.164;7.558;2022-12-18T16:08:42;-0.90;99.90
17154;DHT22;8692;52.164;7.558;2022-12-18T16:11:21;-0.90;99.90
17154;DHT22;8692;52.164;7.558;2022-12-18T16:14:14;-0.90;99.90
17154;DHT22;8692;52.164;7.558;2022-12-18T16:16:44;-0.90;99.90
17154;DHT22;8692;52.164;7.558;2022-12-18T16:19:14;-0.90;99.90
17154;DHT22;8692;52.164;7.558;2022-12-18T16:21:43;-0.90;99.90
17154;DHT22;8692;52.164;7.558;2022-12-18T16:24:15;-0.90;99.90
17154;DHT22;8692;52.164;7.558;2022-12-18T16:26:44;-0.80;99.90
17154;DHT22;8692;52.164;7.558;2022-12-18T16:29:14;-0.80;99.90
17154;DHT22;8692;52.164;7.558;2022-12-18T16:31:44;-0.80;99.90